クウェート国際空港の過去48時間の天気

クウェート国際空港 (Kuwait Internationalairport)

現在時刻: 5/26 04:01 +03 (5/26 01:01 UTC) 以下の時間は現地時間です。

過去48時間のMETAR気象情報
時間 風向 風速(m/s) 視程 気温(℃) 湿度(%) 気圧(hPa) 天気現象
26 03:00 静穏 0 10km以上 26 23 1009
26 02:00 南東 3 10km以上 26 24 1008
26 01:00 南東 3 10km以上 27 23 1009
26 00:00 南東 3 10km以上 28 20 1009
25 23:00 北西 2 10km以上 33 17 1010
25 22:00 北西 2 10km以上 34 18 1010
25 21:00 北北西 5 10km以上 35 16 1009
25 20:00 北北西 4 10km以上 36 13 1009
25 19:00 北北西 5 10km以上 37 13 1008
25 18:00 北西 6 8000m 38 13 1008
25 17:00 北北西 7 8000m 38 11 1007
25 16:00 北西 7 8000m 39 11 1007
25 15:00 北西 6 8000m 39 10 1008
25 14:00 5 8000m 40 11 1008
25 13:00 北北西 6 8000m 38 11 1009
25 12:00 北西 5 7000m 37 15 1010
25 11:00 北西 5 7000m 36 16 1011
25 10:00 4 7000m 35 17 1011
25 09:00 3 7000m 34 20 1011
25 08:00 4 7000m 32 23 1011
25 07:00 4 7000m 30 27 1011
25 06:00 4 7000m 30 25 1010
25 05:00 3 6000m 29 27 1009
25 04:00 北北西 3 4000m 29 31 1009 風塵
25 03:00 北西 3 4000m 29 29 1009 風塵
25 02:00 北北西 4 4000m 30 25 1008 風塵
25 01:00 北西 3 4000m 31 24 1009 風塵
25 00:00 北西 4 4000m 31 22 1009 風塵
24 23:00 北西 4 4000m 32 21 1009 風塵
24 22:00 北北西 6 4000m 33 20 1009 風塵
24 21:00 北北西 5 4000m 33 19 1008 風塵
24 20:00 北北西 5 3500m 34 16 1007 風塵
24 19:00 北西 5 3500m 35 16 1007 風塵
24 18:00 北北西 6 3000m 36 14 1006 風塵
24 17:00 北西 7 3000m 36 14 1006 風塵
24 16:00 北西 7 3000m 37 13 1006 風塵
24 15:00 北北西 7 3000m 37 14 1006 風塵
24 14:00 北北西 8 3000m 37 13 1007 風塵
24 13:00 北西 7 3500m 36 15 1007 風塵
24 12:00 北北西 8 3000m 35 16 1007 風塵
24 11:00 北北西 8 2500m 34 18 1007 風塵
24 10:00 北北西 7 2000m 33 20 1007 風塵
24 09:00 北北西 6 2000m 31 22 1007 風塵
24 08:00 北北西 5 1700m 29 27 1007 風塵
24 07:00 北西 6 1400m 28 28 1007 風塵
24 06:00 北西 5 1400m 27 28 1006 風塵
24 05:00 北北西 6 1500m 27 28 1006 風塵
OKBK 260000Z 00000KT CAVOK 26/03 Q1009 NOSIG
OKBK 252300Z 14005KT CAVOK 26/04 Q1008 NOSIG
OKBK 252200Z 13006KT CAVOK 27/04 Q1009 NOSIG
OKBK 252100Z 14006KT CAVOK 28/03 Q1009 NOSIG
OKBK 252000Z 32004KT CAVOK 33/05 Q1010 NOSIG
OKBK 251900Z 32004KT CAVOK 34/06 Q1010 NOSIG
OKBK 251800Z 34010KT CAVOK 35/05 Q1009 NOSIG
OKBK 251700Z 33008KT CAVOK 36/03 Q1009 NOSIG
OKBK 251600Z 34009KT CAVOK 37/04 Q1008 NOSIG
OKBK 251500Z 32011KT 8000 NSC 38/05 Q1008 NOSIG
OKBK 251400Z 34013KT 8000 NSC 38/03 Q1007 NOSIG
OKBK 251300Z 32013KT 8000 NSC 39/03 Q1007 NOSIG
OKBK 251200Z 32011KT 8000 NSC 39/02 Q1008 NOSIG
OKBK 251100Z 36009KT 8000 NSC 40/04 Q1008 NOSIG
OKBK 251000Z 34011KT 8000 NSC 38/02 Q1009 NOSIG
OKBK 250900Z 32009KT 7000 NSC 37/06 Q1010 NOSIG
OKBK 250800Z 31009KT 7000 NSC 36/06 Q1011 NOSIG
OKBK 250700Z 35008KT 7000 NSC 35/06 Q1011 NOSIG
OKBK 250600Z 35006KT 7000 NSC 34/08 Q1011 NOSIG
OKBK 250500Z 36008KT 7000 NSC 32/08 Q1011 NOSIG
OKBK 250400Z 36007KT 7000 NSC 30/09 Q1011 NOSIG
OKBK 250300Z 36007KT 7000 NSC 30/08 Q1010 NOSIG
OKBK 250200Z 36006KT 6000 NSC 29/08 Q1009 NOSIG
OKBK 250100Z 34006KT 4000 DU NSC 29/10 Q1009 NOSIG
OKBK 250000Z 32006KT 4000 DU NSC 29/09 Q1009 NOSIG
OKBK 242300Z 33007KT 4000 DU NSC 30/08 Q1008 NOSIG
OKBK 242200Z 31006KT 4000 DU NSC 31/08 Q1009 NOSIG
OKBK 242100Z 32007KT 4000 DU NSC 31/07 Q1009 NOSIG
OKBK 242000Z 32008KT 4000 DU NSC 32/07 Q1009 NOSIG
OKBK 241900Z 34011KT 4000 DU NSC 33/07 Q1009 NOSIG
OKBK 241800Z 33009KT 4000 DU NSC 33/06 Q1008 NOSIG
OKBK 241700Z 33010KT 3500 DU NSC 34/05 Q1007 NOSIG
OKBK 241600Z 32010KT 3500 DU NSC 35/05 Q1007 NOSIG
OKBK 241500Z 33012KT 3000 DU NSC 36/04 Q1006 NOSIG
OKBK 241400Z 31014KT 3000 DU NSC 36/04 Q1006 NOSIG
OKBK 241300Z 32014KT 3000 DU NSC 37/04 Q1006 NOSIG
OKBK 241200Z 33014KT 3000 DU NSC 37/05 Q1006 NOSIG
OKBK 241100Z 34016KT 3000 DU NSC 37/04 Q1007 NOSIG
OKBK 241000Z 32014KT 3500 DU NSC 36/05 Q1007 NOSIG
OKBK 240900Z 33015KT 3000 DU NSC 35/05 Q1007 NOSIG
OKBK 240800Z 33016KT 2500 DU NSC 34/06 Q1007 NOSIG
OKBK 240700Z 33014KT 2000 DU NSC 33/07 Q1007 NOSIG
OKBK 240600Z 34012KT 2000 DU NSC 31/07 Q1007 NOSIG
OKBK 240500Z 33009KT 1700 DU NSC 29/08 Q1007 NOSIG
OKBK 240400Z 32012KT 1400 R15R/1200N R33L/1100N R15L/1200N R33R/1400N DU NSC 28/08 Q1007 NOSIG
OKBK 240300Z 32010KT 1400 R15R/1300N R33L/1300N R15L/1400N R33R/1500N DU NSC 27/07 Q1006 NOSIG
OKBK 240200Z 33012KT 1500 DU NSC 27/07 Q1006 NOSIG